createdAt,value
2022-08-07T00:02:40.511Z,99253.91
2022-08-07T00:04:54.346Z,99257.19
2022-08-07T00:07:21.080Z,99259.06
2022-08-07T00:09:59.247Z,99265.81
2022-08-07T00:12:34.396Z,99275.50
2022-08-07T00:15:11.352Z,99270.97
2022-08-07T00:17:41.008Z,99264.88
2022-08-07T00:20:11.694Z,99276.88
2022-08-07T00:22:56.140Z,99266.56
2022-08-07T00:25:25.015Z,99268.19
2022-08-07T00:27:56.534Z,99268.03
2022-08-07T00:30:27.026Z,99267.78
2022-08-07T00:33:00.766Z,99278.09
2022-08-07T00:35:30.319Z,99270.25
2022-08-07T00:37:58.297Z,99266.91
2022-08-07T00:40:36.565Z,99264.63
2022-08-07T00:44:01.684Z,99275.78
2022-08-07T00:46:01.941Z,99276.38
2022-08-07T00:48:31.818Z,99283.22
2022-08-07T00:51:01.957Z,99280.56
2022-08-07T00:53:39.281Z,99285.53
2022-08-07T00:56:16.023Z,99275.81
2022-08-07T00:58:43.820Z,99273.94
2022-08-07T01:01:14.790Z,99274.56
2022-08-07T01:03:56.827Z,99271.09
2022-08-07T01:06:31.737Z,99269.63
2022-08-07T01:09:01.114Z,99269.84
2022-08-07T01:12:27.440Z,99273.41
2022-08-07T01:14:21.314Z,99268.03
2022-08-07T01:16:56.828Z,99258.50
2022-08-07T01:19:27.591Z,99255.38
2022-08-07T01:22:00.892Z,99248.34
2022-08-07T01:24:32.498Z,99259.94
2022-08-07T01:27:02.658Z,99262.63
2022-08-07T01:29:33.916Z,99255.38
2022-08-07T01:32:01.343Z,99252.69
2022-08-07T01:34:33.354Z,99251.28
2022-08-07T01:37:00.883Z,99252.38
2022-08-07T01:39:41.030Z,99255.66
2022-08-07T01:42:38.373Z,99254.44
2022-08-07T01:45:17.850Z,99259.81
2022-08-07T01:48:29.510Z,99262.91
2022-08-07T01:50:32.808Z,99263.09
2022-08-07T01:53:08.922Z,99251.75
2022-08-07T01:55:42.271Z,99253.00
2022-08-07T01:58:28.953Z,99248.25
2022-08-07T02:01:09.872Z,99241.41
2022-08-07T02:03:58.344Z,99242.66
2022-08-07T02:06:31.241Z,99237.09
2022-08-07T02:09:03.822Z,99224.69
2022-08-07T02:12:03.682Z,99235.00
2022-08-07T02:14:35.644Z,99229.25
2022-08-07T02:17:06.295Z,99233.97
2022-08-07T02:20:04.348Z,99232.56
2022-08-07T02:22:25.797Z,99230.69
2022-08-07T02:24:54.621Z,99232.56
2022-08-07T02:27:24.275Z,99238.94
2022-08-07T02:29:54.800Z,99239.16
2022-08-07T02:32:23.198Z,99230.66
2022-08-07T02:34:51.810Z,99225.50
2022-08-07T02:37:19.950Z,99230.22
2022-08-07T02:40:11.959Z,99226.72
2022-08-07T02:42:44.003Z,99230.44
2022-08-07T02:45:59.055Z,99230.03
2022-08-07T02:48:01.852Z,99231.47
2022-08-07T02:50:32.639Z,99231.28
2022-08-07T02:53:12.545Z,99231.47
2022-08-07T02:56:03.371Z,99238.88
2022-08-07T02:58:34.030Z,99231.88
2022-08-07T03:01:03.097Z,99239.50
2022-08-07T03:03:49.984Z,99242.16
2022-08-07T03:06:25.833Z,99230.81
2022-08-07T03:09:01.304Z,99236.81
2022-08-07T03:11:32.691Z,99242.59
2022-08-07T03:14:02.725Z,99239.72
2022-08-07T03:16:30.940Z,99241.78
2022-08-07T03:18:59.445Z,99234.56
2022-08-07T03:21:28.364Z,99235.41
2022-08-07T03:24:17.897Z,99231.88
2022-08-07T03:26:57.881Z,99239.72
2022-08-07T03:29:33.697Z,99231.47
2022-08-07T03:32:05.331Z,99229.81
2022-08-07T03:34:39.197Z,99229.59
2022-08-07T03:37:12.254Z,99227.13
2022-08-07T03:39:59.884Z,99230.22
2022-08-07T03:42:28.178Z,99225.91
2022-08-07T03:44:57.752Z,99219.91
2022-08-07T03:47:26.083Z,99222.78
2022-08-07T03:49:56.891Z,99223.59
2022-08-07T03:52:29.111Z,99224.03
2022-08-07T03:55:06.834Z,99217.63
2022-08-07T03:58:08.756Z,99220.72
2022-08-07T04:00:30.619Z,99226.09
2022-08-07T04:03:03.657Z,99220.53
2022-08-07T04:05:39.785Z,99225.69
2022-08-07T04:08:16.004Z,99222.59
2022-08-07T04:10:54.428Z,99229.41
2022-08-07T04:14:09.508Z,99231.69
2022-08-07T04:16:30.118Z,99237.47
2022-08-07T04:19:01.676Z,99236.66
2022-08-07T04:21:39.946Z,99231.47
2022-08-07T04:24:33.701Z,99241.44
2022-08-07T04:27:01.935Z,99246.41
2022-08-07T04:29:40.365Z,99244.53
2022-08-07T04:32:16.258Z,99238.75
2022-08-07T04:34:44.097Z,99239.97
2022-08-07T04:37:20.233Z,99241.63
2022-08-07T04:39:49.975Z,99248.88
2022-08-07T04:42:17.596Z,99250.50
2022-08-07T04:44:54.683Z,99248.41
2022-08-07T04:47:57.050Z,99257.28
2022-08-07T04:50:42.361Z,99260.13
2022-08-07T04:53:16.612Z,99257.84
2022-08-07T04:58:14.165Z,99260.56
2022-08-07T05:00:09.696Z,99262.25
2022-08-07T05:02:30.643Z,99265.78
2022-08-07T05:05:11.853Z,99264.13
2022-08-07T05:08:12.959Z,99260.56
2022-08-07T05:10:45.957Z,99248.78
2022-08-07T05:14:55.125Z,99247.38
2022-08-07T05:16:24.471Z,99260.47
2022-08-07T05:18:59.380Z,99257.13
2022-08-07T05:21:59.850Z,99260.75
2022-08-07T05:24:18.289Z,99265.63
2022-08-07T05:26:55.552Z,99268.34
2022-08-07T05:29:26.698Z,99274.47
2022-08-07T05:32:07.657Z,99281.94
2022-08-07T05:34:36.355Z,99289.88
2022-08-07T05:37:05.840Z,99295.53
2022-08-07T05:40:16.532Z,99297.22
2022-08-07T05:42:34.291Z,99298.16
2022-08-07T05:45:14.171Z,99304.75
2022-08-07T05:48:02.578Z,99293.34
2022-08-07T05:50:31.830Z,99302.09
2022-08-07T05:53:00.294Z,99305.72
2022-08-07T05:56:03.334Z,99301.63
2022-08-07T05:58:17.420Z,99300.59
2022-08-07T06:01:04.965Z,99304.50
2022-08-07T06:03:56.793Z,99303.00
2022-08-07T06:06:23.278Z,99305.97
2022-08-07T06:08:57.068Z,99298.03
2022-08-07T06:11:25.275Z,99308.47
2022-08-07T06:14:13.380Z,99306.81
2022-08-07T06:16:44.505Z,99306.25
2022-08-07T06:19:52.318Z,99301.38
2022-08-07T06:22:15.814Z,99301.50
2022-08-07T06:24:56.978Z,99292.59
2022-08-07T06:27:44.181Z,99296.91
2022-08-07T06:30:32.128Z,99278.91
2022-08-07T06:32:59.466Z,99275.66
2022-08-07T06:35:38.923Z,99283.09
2022-08-07T06:38:20.031Z,99283.34
2022-08-07T06:40:51.295Z,99285.44
2022-08-07T06:43:23.557Z,99285.69
2022-08-07T06:45:50.753Z,99274.16
2022-08-07T06:48:25.225Z,99282.03
2022-08-07T06:50:54.771Z,99277.47
2022-08-07T06:54:12.040Z,99274.06
2022-08-07T06:56:14.828Z,99277.81
2022-08-07T07:00:13.058Z,99270.59
2022-08-07T07:01:44.049Z,99282.16
2022-08-07T07:04:32.995Z,99274.22
2022-08-07T07:07:02.413Z,99271.34
2022-08-07T07:09:47.958Z,99270.16
2022-08-07T07:12:31.130Z,99268.00
2022-08-07T07:15:08.624Z,99271.16
2022-08-07T07:17:55.284Z,99270.53
2022-08-07T07:20:36.073Z,99276.66
2022-08-07T07:24:09.725Z,99277.72
2022-08-07T07:26:32.326Z,99282.34
2022-08-07T07:29:56.608Z,99285.13
2022-08-07T07:31:46.516Z,99291.88
2022-08-07T07:34:22.234Z,99276.38
2022-08-07T07:37:14.801Z,99268.94
2022-08-07T07:39:54.230Z,99269.84
2022-08-07T07:42:32.596Z,99272.66
2022-08-07T07:45:05.794Z,99276.13
2022-08-07T07:47:51.773Z,99272.78
2022-08-07T07:50:34.143Z,99266.84
2022-08-07T07:53:20.335Z,99270.53
2022-08-07T07:56:00.456Z,99259.25
2022-08-07T07:58:40.582Z,99258.44
2022-08-07T08:02:02.264Z,99263.84
2022-08-07T08:04:10.162Z,99263.19
2022-08-07T08:06:39.863Z,99255.22
2022-08-07T08:09:09.715Z,99254.81
2022-08-07T08:11:47.179Z,99259.72
2022-08-07T08:14:26.653Z,99250.00
2022-08-07T08:16:56.235Z,99258.16
2022-08-07T08:20:17.081Z,99250.09
2022-08-07T08:22:32.848Z,99260.78
2022-08-07T08:25:18.191Z,99264.03
2022-08-07T08:27:56.701Z,99257.00
2022-08-07T08:30:27.960Z,99251.69
2022-08-07T08:32:58.557Z,99258.22
2022-08-07T08:35:28.796Z,99256.91
2022-08-07T08:38:08.925Z,99256.63
2022-08-07T08:40:46.936Z,99253.88
2022-08-07T08:43:42.726Z,99254.44
2022-08-07T08:46:32.170Z,99246.78
2022-08-07T08:50:05.193Z,99246.25
2022-08-07T08:52:40.900Z,99259.63
2022-08-07T08:55:58.981Z,99256.88
2022-08-07T08:58:54.650Z,99251.16
2022-08-07T09:01:40.105Z,99259.63
2022-08-07T09:04:35.011Z,99255.00
2022-08-07T09:07:15.310Z,99254.94
2022-08-07T09:10:09.921Z,99261.97
2022-08-07T09:12:53.050Z,99261.25
2022-08-07T09:16:23.193Z,99266.28
2022-08-07T09:19:44.585Z,99276.66
2022-08-07T09:24:28.060Z,99279.50
2022-08-07T09:25:14.598Z,99283.75
2022-08-07T09:28:00.136Z,99284.91
2022-08-07T09:31:08.713Z,99278.94
2022-08-07T09:33:52.469Z,99280.50
2022-08-07T09:36:37.349Z,99272.13
2022-08-07T09:39:55.249Z,99268.53
2022-08-07T09:42:33.536Z,99265.81
2022-08-07T09:47:24.371Z,99258.16
2022-08-07T09:48:55.879Z,99264.41
2022-08-07T09:52:10.777Z,99253.50
2022-08-07T09:54:58.805Z,99249.50
2022-08-07T09:58:02.327Z,99253.09
2022-08-07T10:00:48.173Z,99250.84
2022-08-07T10:04:06.372Z,99256.41
2022-08-07T10:06:36.566Z,99246.44
2022-08-07T10:09:42.465Z,99244.81
2022-08-07T10:12:34.946Z,99232.19
2022-08-07T10:15:44.889Z,99240.31
2022-08-07T10:18:33.341Z,99222.69
2022-08-07T10:22:15.134Z,99222.84
2022-08-07T10:24:39.870Z,99228.22
2022-08-07T10:27:13.150Z,99227.88
2022-08-07T10:30:04.672Z,99215.63
2022-08-07T10:33:14.851Z,99218.75
2022-08-07T10:36:11.377Z,99217.88
2022-08-07T10:38:57.526Z,99213.91
2022-08-07T10:41:53.132Z,99212.75
2022-08-07T10:44:39.949Z,99212.16
2022-08-07T10:47:26.815Z,99207.47
2022-08-07T10:50:08.677Z,99199.06
2022-08-07T10:52:59.366Z,99204.34
2022-08-07T10:56:02.296Z,99199.91
2022-08-07T10:59:03.315Z,99200.19
2022-08-07T11:01:51.379Z,99189.03
2022-08-07T11:04:47.437Z,99182.81
2022-08-07T11:07:24.617Z,99195.75
2022-08-07T11:10:11.051Z,99189.91
2022-08-07T11:13:07.533Z,99184.19
2022-08-07T11:15:58.957Z,99181.63
2022-08-07T11:18:34.083Z,99173.72
2022-08-07T11:21:27.085Z,99174.19
2022-08-07T11:24:01.705Z,99164.47
2022-08-07T11:26:48.004Z,99169.03
2022-08-07T11:29:42.069Z,99155.75
2022-08-07T11:32:26.090Z,99151.44
2022-08-07T11:34:58.852Z,99149.97
2022-08-07T11:37:57.823Z,99146.09
2022-08-07T11:40:58.660Z,99146.88
2022-08-07T11:43:29.559Z,99161.84
2022-08-07T11:46:27.203Z,99138.59
2022-08-07T11:50:11.223Z,99140.47
2022-08-07T11:52:37.740Z,99140.72
2022-08-07T11:56:09.226Z,99139.09
2022-08-07T11:58:13.246Z,99133.81
2022-08-07T12:01:00.140Z,99148.22
2022-08-07T12:03:50.334Z,99132.88
2022-08-07T12:06:38.901Z,99140.84
2022-08-07T12:09:23.579Z,99136.09
2022-08-07T12:12:12.605Z,99131.56
2022-08-07T12:15:04.360Z,99127.78
2022-08-07T12:17:59.365Z,99125.47
2022-08-07T12:20:52.506Z,99116.31
2022-08-07T12:24:05.758Z,99107.06
2022-08-07T12:26:49.170Z,99115.03
2022-08-07T12:29:55.390Z,99110.78
2022-08-07T12:32:50.298Z,99104.97
2022-08-07T12:35:21.402Z,99096.34
2022-08-07T12:38:11.610Z,99094.13
2022-08-07T12:40:47.429Z,99100.88
2022-08-07T12:44:02.703Z,99102.91
2022-08-07T12:46:10.989Z,99097.31
2022-08-07T12:49:09.779Z,99095.25
2022-08-07T12:52:24.353Z,99085.72
2022-08-07T12:55:41.003Z,99094.97
2022-08-07T12:58:28.257Z,99095.94
2022-08-07T13:01:32.633Z,99093.56
2022-08-07T13:04:09.803Z,99089.78
2022-08-07T13:08:12.555Z,99081.25
2022-08-07T13:10:45.684Z,99080.31
2022-08-07T13:13:50.190Z,99082.25
2022-08-07T13:16:50.719Z,99065.25
2022-08-07T13:19:45.944Z,99069.53
2022-08-07T13:22:29.618Z,99064.06
2022-08-07T13:25:24.126Z,99056.72
2022-08-07T13:28:11.007Z,99063.53
2022-08-07T13:30:52.091Z,99066.25
2022-08-07T13:34:33.384Z,99052.44
2022-08-07T13:37:10.776Z,99055.84
2022-08-07T13:40:35.176Z,99052.13
2022-08-07T13:43:05.901Z,99052.78
2022-08-07T13:46:11.496Z,99050.94
2022-08-07T13:48:42.591Z,99048.19
2022-08-07T13:52:05.098Z,99051.13
2022-08-07T13:54:23.470Z,99043.63
2022-08-07T13:56:59.731Z,99036.09
2022-08-07T13:59:30.361Z,99036.75
2022-08-07T14:02:10.803Z,99034.78
2022-08-07T14:05:03.759Z,99034.78
2022-08-07T14:08:01.037Z,99032.75
2022-08-07T14:10:42.228Z,99022.78
2022-08-07T14:13:19.131Z,99026.75
2022-08-07T14:15:56.819Z,99031.72
2022-08-07T14:18:44.944Z,99027.03
2022-08-07T14:22:04.115Z,99024.72
2022-08-07T14:24:41.840Z,99012.25
2022-08-07T14:28:09.711Z,99006.72
2022-08-07T14:30:10.961Z,99014.78
2022-08-07T14:32:45.296Z,99009.31
2022-08-07T14:35:43.147Z,99003.88
2022-08-07T14:38:26.675Z,99006.38
2022-08-07T14:41:01.928Z,99008.88
2022-08-07T14:46:33.254Z,99007.72
2022-08-07T14:52:05.125Z,99002.03
2022-08-07T14:54:42.244Z,98999.59
2022-08-07T14:57:19.704Z,98998.28
2022-08-07T15:00:03.392Z,98999.72
2022-08-07T15:02:34.559Z,99000.38
2022-08-07T15:05:03.127Z,98992.97
2022-08-07T15:07:47.632Z,98994.16
2022-08-07T15:10:19.627Z,98990.63
2022-08-07T15:12:54.889Z,98998.56
2022-08-07T15:15:33.806Z,98996.53
2022-08-07T15:18:14.256Z,98994.13
2022-08-07T15:21:03.934Z,98994.63
2022-08-07T15:25:13.904Z,98978.66
2022-08-07T15:26:49.434Z,98988.47
2022-08-07T15:30:08.407Z,98981.63
2022-08-07T15:32:06.556Z,98984.41
2022-08-07T15:34:57.131Z,98978.44
2022-08-07T15:38:18.352Z,98976.47
2022-08-07T15:40:34.633Z,98973.50
2022-08-07T15:43:52.882Z,98972.91
2022-08-07T15:49:12.530Z,98979.69
2022-08-07T15:54:34.273Z,98967.66
2022-08-07T15:57:02.965Z,98955.47
2022-08-07T15:59:39.015Z,98957.38
2022-08-07T16:02:08.784Z,98960.38
2022-08-07T16:04:38.254Z,98963.41
2022-08-07T16:08:29.056Z,98952.03
2022-08-07T16:10:09.617Z,98948.34
2022-08-07T16:13:01.356Z,98952.09
2022-08-07T16:16:06.385Z,98954.44
2022-08-07T16:18:49.328Z,98947.22
2022-08-07T16:21:56.973Z,98948.97
2022-08-07T16:24:52.818Z,98953.31
2022-08-07T16:27:40.826Z,98945.00
2022-08-07T16:30:32.049Z,98945.81
2022-08-07T16:34:01.954Z,98944.69
2022-08-07T16:36:31.170Z,98941.75
2022-08-07T16:39:20.949Z,98948.72
2022-08-07T16:42:17.938Z,98937.06
2022-08-07T16:46:47.137Z,98937.63
2022-08-07T16:49:04.324Z,98944.72
2022-08-07T16:51:54.138Z,98944.59
2022-08-07T16:54:59.801Z,98940.47
2022-08-07T16:58:01.911Z,98933.47
2022-08-07T17:00:55.362Z,98928.66
2022-08-07T17:03:59.487Z,98931.53
2022-08-07T17:06:46.490Z,98927.00
2022-08-07T17:10:06.683Z,98935.34
2022-08-07T17:12:44.334Z,98946.94
2022-08-07T17:15:15.686Z,98944.34
2022-08-07T17:18:09.533Z,98939.50
2022-08-07T17:20:40.508Z,98938.50
2022-08-07T17:23:13.096Z,98942.72
2022-08-07T17:26:04.155Z,98946.31
2022-08-07T17:28:55.351Z,98957.00
2022-08-07T17:31:44.239Z,98947.28
2022-08-07T17:35:30.802Z,98956.91
2022-08-07T17:38:06.828Z,98957.13
2022-08-07T17:40:50.683Z,98955.88
2022-08-07T17:44:00.857Z,98958.72
2022-08-07T17:46:36.412Z,98955.56
2022-08-07T17:49:30.060Z,98956.28
2022-08-07T17:52:10.537Z,98954.44
2022-08-07T17:54:53.644Z,98957.75
2022-08-07T17:57:56.308Z,98961.16
2022-08-07T18:00:34.420Z,98960.69
2022-08-07T18:03:21.362Z,98958.72
2022-08-07T18:06:02.374Z,98961.81
2022-08-07T18:09:00.693Z,98967.69
2022-08-07T18:12:16.866Z,98967.53
2022-08-07T18:14:46.371Z,98970.72
2022-08-07T18:18:45.627Z,98969.94
2022-08-07T18:21:11.510Z,98975.06
2022-08-07T18:23:56.013Z,98979.03
2022-08-07T18:26:40.554Z,98975.72
2022-08-07T18:30:05.841Z,98983.84
2022-08-07T18:32:19.803Z,98985.75
2022-08-07T18:35:04.939Z,98986.75
2022-08-07T18:38:59.650Z,98987.41
2022-08-07T18:40:59.772Z,98998.47
2022-08-07T18:43:57.719Z,99005.28
2022-08-07T18:47:01.086Z,99008.97
2022-08-07T18:50:32.510Z,99007.94
2022-08-07T18:53:15.212Z,99014.63
2022-08-07T18:56:07.160Z,99019.91
2022-08-07T18:58:51.500Z,99019.44
2022-08-07T19:02:31.629Z,99031.97
2022-08-07T19:04:56.275Z,99024.97
2022-08-07T19:07:35.131Z,99035.06
2022-08-07T19:10:31.356Z,99038.38
2022-08-07T19:13:27.425Z,99044.19
2022-08-07T19:17:05.967Z,99048.56
2022-08-07T19:19:46.841Z,99044.78
2022-08-07T19:22:31.466Z,99048.84
2022-08-07T19:25:05.499Z,99055.41
2022-08-07T19:28:56.655Z,99059.50
2022-08-07T19:31:04.543Z,99061.94
2022-08-07T19:33:34.589Z,99061.38
2022-08-07T19:36:03.192Z,99058.66
2022-08-07T19:38:34.122Z,99066.25
2022-08-07T19:41:02.732Z,99065.63
2022-08-07T19:43:45.611Z,99067.22
2022-08-07T19:46:26.360Z,99065.56
2022-08-07T19:49:06.719Z,99057.06
2022-08-07T19:51:52.657Z,99071.72
2022-08-07T19:54:33.334Z,99066.81
2022-08-07T19:58:00.890Z,99070.28
2022-08-07T20:00:03.873Z,99068.06
2022-08-07T20:02:51.802Z,99060.63
2022-08-07T20:05:23.716Z,99063.06
2022-08-07T20:07:59.706Z,99062.16
2022-08-07T20:10:51.844Z,99065.13
2022-08-07T20:13:27.016Z,99069.41
2022-08-07T20:16:00.557Z,99065.53
2022-08-07T20:18:32.586Z,99054.06
2022-08-07T20:21:14.300Z,99048.03
2022-08-07T20:23:48.388Z,99046.38
2022-08-07T20:26:32.437Z,99042.50
2022-08-07T20:29:10.462Z,99042.91
2022-08-07T20:31:44.160Z,99040.56
2022-08-07T20:34:25.527Z,99041.31
2022-08-07T20:37:05.524Z,99037.03
2022-08-07T20:40:02.123Z,99042.44
2022-08-07T20:42:23.108Z,99033.84
2022-08-07T20:44:52.911Z,99035.34
2022-08-07T20:47:25.046Z,99031.63
2022-08-07T20:50:00.247Z,99028.91
2022-08-07T20:52:52.384Z,99024.38
2022-08-07T20:55:23.830Z,99030.06
2022-08-07T20:58:02.638Z,99032.63
2022-08-07T21:00:42.598Z,99031.88
2022-08-07T21:03:14.337Z,99027.03
2022-08-07T21:05:55.800Z,99030.00
2022-08-07T21:08:36.503Z,99025.47
2022-08-07T21:11:05.122Z,99024.97
2022-08-07T21:13:57.369Z,99030.72
2022-08-07T21:16:56.374Z,99030.63
2022-08-07T21:19:32.273Z,99029.66
2022-08-07T21:22:19.038Z,99021.16
2022-08-07T21:25:25.077Z,99023.19
2022-08-07T21:28:01.681Z,99019.59
2022-08-07T21:30:47.001Z,99025.72
2022-08-07T21:33:29.338Z,99024.91
2022-08-07T21:36:30.889Z,99020.47
2022-08-07T21:39:45.378Z,99024.69
2022-08-07T21:42:45.988Z,99027.16
2022-08-07T21:46:10.742Z,99028.56
2022-08-07T21:48:34.439Z,99042.91
2022-08-07T21:51:32.537Z,99042.38
2022-08-07T21:54:39.058Z,99038.63
2022-08-07T21:57:51.866Z,99047.31
2022-08-07T22:00:25.264Z,99045.56
2022-08-07T22:03:16.771Z,99047.41
2022-08-07T22:06:30.547Z,99050.50
2022-08-07T22:09:10.216Z,99048.53
2022-08-07T22:12:04.825Z,99057.19
2022-08-07T22:16:38.695Z,99057.56
2022-08-07T22:18:00.593Z,99056.25
2022-08-07T22:21:01.640Z,99063.16
2022-08-07T22:23:57.358Z,99054.63
2022-08-07T22:26:33.469Z,99052.63
2022-08-07T22:29:14.022Z,99050.41
2022-08-07T22:32:00.143Z,99048.50
2022-08-07T22:34:59.686Z,99052.16
2022-08-07T22:38:02.852Z,99048.50
2022-08-07T22:40:45.192Z,99048.50
2022-08-07T22:43:16.099Z,99046.06
2022-08-07T22:46:47.065Z,99050.38
2022-08-07T22:49:16.597Z,99053.25
2022-08-07T22:52:37.270Z,99058.63
2022-08-07T22:55:41.801Z,99061.44
2022-08-07T22:58:46.559Z,99061.31
2022-08-07T23:01:49.764Z,99061.50
2022-08-07T23:04:57.874Z,99058.56
2022-08-07T23:07:54.068Z,99060.94
2022-08-07T23:10:46.542Z,99060.00
2022-08-07T23:13:49.063Z,99054.00
2022-08-07T23:17:02.375Z,99053.28
2022-08-07T23:20:03.519Z,99053.41
2022-08-07T23:23:01.186Z,99059.59
2022-08-07T23:26:05.683Z,99063.47
2022-08-07T23:29:43.975Z,99065.34
2022-08-07T23:34:18.653Z,99056.56
2022-08-07T23:36:04.468Z,99057.34
2022-08-07T23:38:46.129Z,99063.91
2022-08-07T23:42:04.499Z,99056.03
2022-08-07T23:44:35.087Z,99055.47
2022-08-07T23:47:42.441Z,99052.97
2022-08-07T23:50:36.940Z,99061.34
2022-08-07T23:53:21.627Z,99057.47
2022-08-07T23:55:55.535Z,99065.41
2022-08-07T23:58:36.565Z,99071.75
